Time;durP1;ratioP1;P1;durP2;ratioP2;P2;SDS_P1;SDS_P2;PMS_P1;PMS_P2;Temp;Humidity;BMP_temperature;BMP_pressure;BME280_temperature;BME280_humidity;BME280_pressure;Samples;Min_cycle;Max_cycle;Signal;HPM_P1;HPM_P2
2021/06/23 00:01:41;;;;;;;22.35;16.35;;;;;;;24.86;100.00;98860.53;4355852;80;28440;-81
2021/06/23 00:07:44;;;;;;;24.95;16.77;;;;;;;24.66;100.00;98856.57;4330511;80;28569;-81
2021/06/23 00:13:46;;;;;;;27.20;16.45;;;;;;;24.82;100.00;98865.66;4308946;80;28472;-81
2021/06/23 00:19:47;;;;;;;25.32;15.15;;;;;;;24.86;100.00;98878.41;4308994;80;28465;-81
2021/06/23 00:25:48;;;;;;;25.77;16.15;;;;;;;24.90;100.00;98880.75;4329964;80;28471;-82
2021/06/23 00:31:50;;;;;;;24.57;16.12;;;;;;;25.11;100.00;98869.55;4343721;80;28598;-81
2021/06/23 00:37:52;;;;;;;26.62;15.95;;;;;;;25.01;100.00;98870.16;4354298;80;28533;-81
2021/06/23 00:43:54;;;;;;;23.40;16.05;;;;;;;25.25;100.00;98880.30;4357268;80;28513;-80
2021/06/23 00:49:55;;;;;;;23.25;15.48;;;;;;;25.24;100.00;98894.61;4366651;80;28464;-80
2021/06/23 00:56:01;;;;;;;21.00;14.60;;;;;;;25.29;100.00;98908.75;4355026;80;28451;-80
2021/06/23 01:02:03;;;;;;;21.95;16.15;;;;;;;25.36;100.00;98904.91;4339764;80;28572;-80
2021/06/23 01:08:08;;;;;;;26.05;16.97;;;;;;;25.32;100.00;98910.85;4383633;80;28473;-80
2021/06/23 01:14:12;;;;;;;25.65;17.37;;;;;;;25.33;100.00;98918.75;4376331;80;28477;-80
2021/06/23 01:20:15;;;;;;;22.90;16.90;;;;;;;25.39;100.00;98930.95;4360961;81;28470;-80
2021/06/23 01:26:17;;;;;;;25.02;17.50;;;;;;;25.46;100.00;98932.59;4328981;81;28455;-80
2021/06/23 01:32:22;;;;;;;25.43;17.07;;;;;;;25.51;100.00;98928.31;4341246;81;28496;-80
2021/06/23 01:38:25;;;;;;;24.77;17.10;;;;;;;25.55;100.00;98934.75;4317120;81;28448;-81
2021/06/23 01:44:30;;;;;;;26.82;17.52;;;;;;;25.68;100.00;98938.97;4338306;81;28460;-80
2021/06/23 01:50:32;;;;;;;29.00;17.62;;;;;;;25.76;100.00;98944.96;4329952;81;28511;-81
2021/06/23 01:56:35;;;;;;;25.70;17.52;;;;;;;25.84;100.00;98966.13;4343582;82;28456;-81
2021/06/23 02:02:46;;;;;;;27.30;17.67;;;;;;;25.87;100.00;98974.30;4356418;81;28521;-81
2021/06/23 02:08:59;;;;;;;25.10;17.48;;;;;;;25.99;100.00;98960.58;4323456;81;28521;-79
2021/06/23 02:15:06;;;;;;;27.15;18.07;;;;;;;25.95;100.00;98962.41;4325098;80;28507;-80
2021/06/23 02:21:19;;;;;;;26.87;17.42;;;;;;;25.96;100.00;98965.95;4300692;80;28567;-80
2021/06/23 02:27:23;;;;;;;27.13;17.05;;;;;;;26.00;100.00;98983.43;4321699;80;28496;-80
2021/06/23 02:33:26;;;;;;;26.42;17.57;;;;;;;25.93;100.00;98992.23;4323717;82;28450;-80
2021/06/23 02:39:30;;;;;;;27.77;17.60;;;;;;;25.94;100.00;98976.50;4341684;79;28503;-80
2021/06/23 02:45:32;;;;;;;25.37;17.55;;;;;;;25.97;100.00;98989.03;4322799;80;28482;-81
2021/06/23 02:51:40;;;;;;;22.27;16.12;;;;;;;25.96;100.00;98993.48;4357997;81;28484;-81
2021/06/23 02:57:41;;;;;;;26.02;17.42;;;;;;;26.09;100.00;98995.75;4360431;81;28430;-82
2021/06/23 03:03:45;;;;;;;29.52;17.48;;;;;;;26.05;100.00;98987.34;4370682;81;28470;-81
2021/06/23 03:09:46;;;;;;;22.90;16.50;;;;;;;26.02;100.00;99002.59;4414796;80;28540;-80
2021/06/23 03:15:53;;;;;;;27.02;17.30;;;;;;;26.20;100.00;98999.73;4440871;78;28479;-80
2021/06/23 03:22:07;;;;;;;24.98;16.40;;;;;;;26.03;100.00;99001.47;4456547;78;28445;-81
2021/06/23 03:28:10;;;;;;;25.80;18.57;;;;;;;26.09;100.00;99014.47;4455070;78;28449;-81
2021/06/23 03:34:13;;;;;;;30.20;19.27;;;;;;;26.17;100.00;99025.18;4457324;78;28516;-79
2021/06/23 03:40:21;;;;;;;29.30;18.23;;;;;;;26.16;100.00;99031.84;4470043;78;28501;-80
2021/06/23 03:46:22;;;;;;;27.27;18.62;;;;;;;26.18;100.00;99034.47;4458446;78;28461;-80
2021/06/23 03:52:25;;;;;;;29.95;19.40;;;;;;;26.26;100.00;99032.02;4430134;78;28499;-81
2021/06/23 03:58:26;;;;;;;36.25;20.23;;;;;;;26.19;100.00;99032.56;4436517;78;28453;-80
2021/06/23 04:04:27;;;;;;;28.50;19.20;;;;;;;26.12;100.00;99035.83;4439713;78;28504;-80
2021/06/23 04:10:29;;;;;;;32.40;21.20;;;;;;;26.10;100.00;99033.17;4430169;78;28432;-81
2021/06/23 04:16:32;;;;;;;33.20;20.15;;;;;;;26.12;100.00;99056.49;4422976;78;28477;-81
2021/06/23 04:22:35;;;;;;;34.25;20.40;;;;;;;26.00;100.00;99055.05;4287716;80;28473;-81
2021/06/23 04:28:41;;;;;;;32.03;20.77;;;;;;;26.00;100.00;99060.55;4371513;80;28512;-81
2021/06/23 04:34:43;;;;;;;33.02;20.77;;;;;;;25.91;100.00;99068.85;4389564;79;28526;-81
2021/06/23 04:40:53;;;;;;;35.17;20.05;;;;;;;26.00;100.00;99070.98;4331044;80;28564;-82
2021/06/23 04:46:54;;;;;;;37.58;21.37;;;;;;;25.91;100.00;99085.38;4344944;80;28471;-83
2021/06/23 04:52:57;;;;;;;35.70;21.57;;;;;;;25.94;100.00;99080.60;4328757;80;28440;-81
2021/06/23 04:58:59;;;;;;;35.10;21.15;;;;;;;25.93;100.00;99075.41;4303018;81;28502;-79
2021/06/23 05:05:04;;;;;;;38.85;22.37;;;;;;;26.03;100.00;99076.40;4391805;80;28524;-79
2021/06/23 05:11:06;;;;;;;35.55;22.17;;;;;;;26.05;100.00;99076.87;4417725;78;28582;-80
2021/06/23 05:17:07;;;;;;;35.43;22.30;;;;;;;26.17;100.00;99063.16;4431523;78;28524;-80
2021/06/23 05:23:09;;;;;;;36.70;22.42;;;;;;;26.36;100.00;99069.39;4433400;78;28590;-85
2021/06/23 05:29:10;;;;;;;34.48;21.73;;;;;;;26.38;100.00;99076.75;4422755;78;28478;-86
2021/06/23 05:35:14;;;;;;;35.25;22.02;;;;;;;26.44;100.00;99081.72;4418864;78;28449;-81
2021/06/23 05:41:15;;;;;;;32.60;20.82;;;;;;;26.26;100.00;99087.95;4458655;78;28479;-82
2021/06/23 05:47:17;;;;;;;35.85;22.35;;;;;;;26.49;100.00;99090.36;4423560;78;28493;-87
2021/06/23 05:53:18;;;;;;;32.85;20.97;;;;;;;26.27;100.00;99105.27;4439304;78;28521;-87
2021/06/23 05:59:20;;;;;;;31.25;19.77;;;;;;;26.41;100.00;99113.28;4436071;78;28508;-86
2021/06/23 06:05:21;;;;;;;31.52;20.90;;;;;;;26.03;100.00;99115.78;4433016;78;28475;-85
2021/06/23 06:11:23;;;;;;;28.12;19.15;;;;;;;26.03;100.00;99128.73;4395135;78;28477;-85
2021/06/23 06:17:24;;;;;;;29.05;19.02;;;;;;;26.37;100.00;99136.56;4393345;78;28472;-86
2021/06/23 06:23:26;;;;;;;30.23;18.37;;;;;;;26.24;100.00;99149.48;4418560;78;28503;-85
2021/06/23 06:29:27;;;;;;;26.65;18.12;;;;;;;26.50;100.00;99149.03;4421461;78;28523;-85
2021/06/23 06:35:29;;;;;;;25.40;17.60;;;;;;;26.48;100.00;99157.66;4439350;78;28470;-84
2021/06/23 06:41:30;;;;;;;22.80;16.57;;;;;;;26.65;100.00;99176.57;4456122;78;28544;-85
2021/06/23 06:47:31;;;;;;;21.82;15.53;;;;;;;26.54;100.00;99175.59;4444720;78;28448;-84
2021/06/23 06:53:33;;;;;;;21.60;15.13;;;;;;;26.77;100.00;99179.98;4408056;78;28480;-85
2021/06/23 06:59:35;;;;;;;22.50;14.87;;;;;;;26.63;100.00;99183.00;4410794;79;29309;-85
2021/06/23 07:05:36;;;;;;;21.55;14.10;;;;;;;26.69;100.00;99181.67;4425797;78;28455;-85
2021/06/23 07:11:38;;;;;;;22.25;14.40;;;;;;;26.74;100.00;99180.07;4447746;78;28437;-84
2021/06/23 07:17:40;;;;;;;22.05;15.08;;;;;;;26.51;100.00;99195.57;4443622;78;28544;-84
2021/06/23 07:23:41;;;;;;;21.27;14.43;;;;;;;26.62;100.00;99192.41;4415259;78;28503;-85
2021/06/23 07:29:42;;;;;;;26.02;17.48;;;;;;;26.69;100.00;99192.11;4415101;78;28478;-86
2021/06/23 07:42:06;;;;;;;29.98;18.30;;;;;;;25.78;100.00;99185.55;4434448;78;28455;-84
2021/06/23 07:48:08;;;;;;;28.87;17.23;;;;;;;25.34;100.00;99187.25;4433575;78;28500;-82
2021/06/23 07:54:25;;;;;;;32.60;19.15;;;;;;;26.22;100.00;99199.95;4400924;78;28476;-86
2021/06/23 08:13:03;;;;;;;29.82;18.15;;;;;;;25.98;100.00;99200.52;4415771;78;28542;-82
2021/06/23 08:19:05;;;;;;;26.35;17.12;;;;;;;26.54;100.00;99204.54;4396686;78;28484;-79
2021/06/23 08:25:07;;;;;;;26.30;17.27;;;;;;;26.11;100.00;99202.27;4423048;79;28438;-84
2021/06/23 08:31:08;;;;;;;29.30;16.97;;;;;;;25.96;100.00;99205.56;4413580;78;28513;-82
2021/06/23 08:37:10;;;;;;;25.95;16.62;;;;;;;25.96;100.00;99215.20;4446846;78;28436;-82
2021/06/23 08:43:19;;;;;;;22.05;14.55;;;;;;;26.28;100.00;99222.05;4406336;80;28446;-84
2021/06/23 08:49:21;;;;;;;25.45;17.45;;;;;;;27.14;100.00;99233.40;4417767;78;28529;-81
2021/06/23 08:55:23;;;;;;;21.07;15.08;;;;;;;26.20;100.00;99237.27;4407193;78;28482;-82
2021/06/23 09:01:24;;;;;;;22.35;15.35;;;;;;;26.91;100.00;99241.80;4399781;78;28429;-82
2021/06/23 09:07:59;;;;;;;23.83;14.98;;;;;;;26.56;100.00;99238.67;4392675;78;28488;-80
2021/06/23 09:14:05;;;;;;;21.57;14.87;;;;;;;27.61;100.00;99242.58;4365695;78;28523;-78
2021/06/23 09:20:07;;;;;;;21.23;13.65;;;;;;;28.19;100.00;99236.81;4435996;78;28499;-78
2021/06/23 09:26:23;;;;;;;20.65;13.72;;;;;;;27.68;100.00;99236.48;4402847;78;28450;-78
2021/06/23 09:32:24;;;;;;;19.00;13.55;;;;;;;28.27;100.00;99239.22;4410300;78;28516;-78
2021/06/23 09:38:47;;;;;;;21.15;13.43;;;;;;;28.64;100.00;99247.50;4381879;80;28458;-77
2021/06/23 09:45:04;;;;;;;21.33;14.55;;;;;;;29.18;100.00;99248.30;4404387;79;28494;-80
2021/06/23 09:51:21;;;;;;;24.98;16.35;;;;;;;29.29;100.00;99242.48;4357342;79;28502;-80
2021/06/23 09:57:23;;;;;;;21.05;14.45;;;;;;;28.69;100.00;99250.01;4379812;80;28483;-80
2021/06/23 10:03:30;;;;;;;20.40;14.73;;;;;;;28.25;100.00;99244.52;4350254;80;28561;-81
2021/06/23 10:09:33;;;;;;;20.52;14.23;;;;;;;28.27;100.00;99246.92;4341641;80;28476;-81
2021/06/23 10:15:35;;;;;;;24.72;16.62;;;;;;;28.41;100.00;99253.48;4387609;79;28531;-81
2021/06/23 10:21:38;;;;;;;25.70;16.40;;;;;;;28.16;100.00;99256.23;4398206;80;28566;-81
2021/06/23 10:27:49;;;;;;;29.00;18.23;;;;;;;27.41;100.00;99262.95;4393543;79;28537;-81
2021/06/23 10:33:50;;;;;;;25.75;16.70;;;;;;;28.84;100.00;99246.30;4385777;79;28480;-81
2021/06/23 10:39:53;;;;;;;27.90;18.40;;;;;;;29.27;93.71;99243.42;4413301;79;28441;-82
2021/06/23 10:45:57;;;;;;;27.25;17.35;;;;;;;28.91;96.69;99243.77;4396202;79;28461;-81
2021/06/23 10:52:25;;;;;;;24.43;17.55;;;;;;;28.56;100.00;99253.36;4397546;78;28462;-79
2021/06/23 10:58:30;;;;;;;29.10;18.00;;;;;;;28.71;97.73;99256.59;4409337;78;28491;-81
2021/06/23 11:04:54;;;;;;;28.57;18.80;;;;;;;28.66;96.55;99254.86;4314248;80;28453;-81
2021/06/23 11:11:10;;;;;;;26.85;17.62;;;;;;;29.08;92.47;99249.58;4384255;78;28543;-78
2021/06/23 11:17:29;;;;;;;27.27;17.50;;;;;;;28.58;95.43;99241.96;4353263;79;28482;-80
2021/06/23 11:23:55;;;;;;;25.17;17.73;;;;;;;29.49;85.78;99237.11;4315568;81;28541;-78
2021/06/23 11:30:01;;;;;;;27.60;18.23;;;;;;;30.14;80.03;99240.73;4440096;80;28468;-77
2021/06/23 11:36:06;;;;;;;23.27;16.90;;;;;;;30.71;76.18;99243.27;4360686;80;50752;-83
2021/06/23 11:42:08;;;;;;;23.37;17.37;;;;;;;30.83;74.27;99244.52;4328409;80;28440;-81
2021/06/23 11:48:10;;;;;;;24.90;16.07;;;;;;;30.77;75.75;99241.80;4308741;80;28495;-79
2021/06/23 11:54:11;;;;;;;25.00;16.62;;;;;;;30.79;74.69;99228.95;4308814;81;28478;-78
2021/06/23 12:00:15;;;;;;;25.00;17.30;;;;;;;29.99;82.37;99229.28;4301849;81;28491;-81
2021/06/23 12:06:19;;;;;;;27.42;16.57;;;;;;;28.97;90.46;99237.41;4267537;82;28619;-79
2021/06/23 12:12:21;;;;;;;20.95;14.87;;;;;;;28.98;92.36;99235.68;4324239;81;28535;-78
2021/06/23 12:18:22;;;;;;;29.00;18.77;;;;;;;28.94;88.66;99243.05;4321058;81;28561;-78
2021/06/23 12:24:23;;;;;;;25.10;16.52;;;;;;;28.74;89.40;99244.25;4320759;80;28464;-77
2021/06/23 12:30:29;;;;;;;20.92;15.70;;;;;;;29.42;84.60;99245.19;4342233;80;28484;-79
2021/06/23 12:36:30;;;;;;;21.48;15.85;;;;;;;29.42;83.67;99247.95;4326491;80;28515;-78
2021/06/23 12:42:32;;;;;;;23.22;17.23;;;;;;;30.15;77.93;99243.76;4362933;80;28434;-78
2021/06/23 12:48:36;;;;;;;22.50;15.78;;;;;;;29.32;81.87;99247.90;4268022;81;28526;-78
2021/06/23 12:54:37;;;;;;;26.12;16.82;;;;;;;29.81;79.56;99235.77;4277050;81;28465;-78
2021/06/23 13:00:38;;;;;;;24.40;15.48;;;;;;;29.41;80.59;99227.75;4350114;80;28525;-78
2021/06/23 13:06:40;;;;;;;29.63;20.70;;;;;;;30.81;69.68;99220.50;4331393;80;28569;-79
2021/06/23 13:12:42;;;;;;;20.60;14.23;;;;;;;30.45;69.93;99221.05;4273076;81;28451;-79
2021/06/23 13:18:45;;;;;;;23.62;15.80;;;;;;;31.24;66.67;99220.61;4353228;81;28493;-78
2021/06/23 13:24:47;;;;;;;23.25;15.18;;;;;;;31.49;65.64;99219.45;4359468;80;28582;-79
2021/06/23 13:30:49;;;;;;;21.90;14.60;;;;;;;31.86;67.53;99230.06;4335713;80;28428;-80
2021/06/23 13:36:51;;;;;;;21.62;14.80;;;;;;;31.65;64.28;99224.31;4338688;80;28471;-79
2021/06/23 13:42:54;;;;;;;21.93;15.32;;;;;;;31.69;64.71;99222.39;4344699;80;28578;-79
2021/06/23 13:48:55;;;;;;;20.43;15.53;;;;;;;31.94;65.87;99226.23;4353766;80;28487;-77
2021/06/23 13:54:56;;;;;;;20.30;14.63;;;;;;;31.83;66.11;99231.59;4350946;80;28440;-78
2021/06/23 14:00:58;;;;;;;19.60;15.05;;;;;;;31.57;63.99;99235.90;4348849;80;28560;-78
2021/06/23 14:06:59;;;;;;;19.90;15.58;;;;;;;31.64;64.46;99224.67;4347103;80;28428;-78
2021/06/23 14:13:01;;;;;;;22.30;15.78;;;;;;;31.94;63.06;99210.13;4337173;80;28481;-79
2021/06/23 14:19:03;;;;;;;23.83;18.07;;;;;;;30.65;70.45;99207.25;4361505;80;28522;-79
2021/06/23 14:25:07;;;;;;;28.67;16.75;;;;;;;30.55;71.40;99205.23;4322580;80;28461;-79
2021/06/23 14:31:08;;;;;;;25.72;18.80;;;;;;;31.00;70.04;99201.65;4341355;80;28484;-80
2021/06/23 14:37:09;;;;;;;26.65;18.60;;;;;;;30.87;72.25;99208.52;4348966;80;28472;-83
2021/06/23 14:43:11;;;;;;;26.23;18.75;;;;;;;30.98;69.38;99213.70;4347605;80;28447;-83
2021/06/23 14:49:13;;;;;;;24.43;18.55;;;;;;;30.84;70.02;99217.59;4356341;80;28498;-82
2021/06/23 14:55:23;;;;;;;25.80;17.95;;;;;;;30.71;70.86;99218.30;4383327;79;28509;-79
2021/06/23 15:01:18;;;;;;;22.87;17.55;;;;;;;31.20;68.85;99223.06;4345033;80;28425;-79
2021/06/23 15:07:22;;;;;;;27.00;18.12;;;;;;;31.57;67.06;99219.23;4351392;80;28517;-78
2021/06/23 15:13:24;;;;;;;27.42;19.57;;;;;;;31.30;68.09;99227.45;4350112;80;28468;-80
2021/06/23 15:19:25;;;;;;;27.45;19.98;;;;;;;30.62;70.73;99221.26;4355637;80;28505;-79
2021/06/23 15:25:27;;;;;;;26.95;19.40;;;;;;;31.12;68.35;99221.52;4367992;80;28467;-78
2021/06/23 15:31:29;;;;;;;26.27;19.67;;;;;;;31.32;69.40;99224.31;4361218;80;28597;-78
2021/06/23 15:37:31;;;;;;;26.57;20.08;;;;;;;31.60;67.98;99209.93;4341077;80;28577;-78
2021/06/23 15:43:32;;;;;;;25.50;19.25;;;;;;;30.91;71.80;99214.94;4356868;80;28487;-78
2021/06/23 15:49:34;;;;;;;26.87;18.70;;;;;;;31.00;71.35;99215.52;4368813;80;28490;-79
2021/06/23 15:55:35;;;;;;;28.52;21.37;;;;;;;30.91;73.81;99216.33;4349401;80;28550;-80
2021/06/23 16:01:37;;;;;;;28.30;20.20;;;;;;;31.24;70.25;99216.44;4382950;79;28521;-79
2021/06/23 16:07:38;;;;;;;26.20;19.35;;;;;;;30.29;78.70;99207.22;4386996;79;28508;-79
2021/06/23 16:13:40;;;;;;;26.80;19.75;;;;;;;30.64;74.68;99202.84;4387961;79;28498;-78
2021/06/23 16:19:42;;;;;;;28.10;20.45;;;;;;;30.62;74.69;99203.23;4358230;80;28445;-81
2021/06/23 16:25:45;;;;;;;24.95;19.73;;;;;;;31.29;71.58;99207.80;4317195;82;28470;-81
2021/06/23 16:31:47;;;;;;;28.62;21.50;;;;;;;31.13;71.50;99206.47;4323566;81;28466;-79
2021/06/23 16:37:48;;;;;;;27.85;20.77;;;;;;;30.91;73.60;99218.31;4321669;80;28671;-80
2021/06/23 16:43:50;;;;;;;29.92;22.55;;;;;;;30.52;74.30;99219.84;4313927;80;28456;-80
2021/06/23 16:49:51;;;;;;;27.62;20.45;;;;;;;30.56;75.59;99217.15;4330115;80;28535;-81
2021/06/23 16:55:54;;;;;;;32.63;22.37;;;;;;;30.81;73.20;99213.56;4330335;80;28555;-79
2021/06/23 17:01:56;;;;;;;30.17;23.27;;;;;;;30.37;75.69;99210.39;4400530;79;28494;-81
2021/06/23 17:07:57;;;;;;;30.37;20.60;;;;;;;30.40;75.85;99221.35;4350659;80;28471;-84
2021/06/23 17:14:01;;;;;;;33.02;24.07;;;;;;;30.59;74.94;99226.94;4352259;80;28476;-82
2021/06/23 17:20:03;;;;;;;29.55;22.02;;;;;;;29.96;80.31;99234.16;4326839;82;28458;-82
2021/06/23 17:26:07;;;;;;;33.05;24.27;;;;;;;30.61;75.02;99236.27;4330462;80;28490;-82
2021/06/23 17:32:09;;;;;;;34.88;25.70;;;;;;;30.34;77.78;99240.23;4335674;80;28472;-82
2021/06/23 17:38:11;;;;;;;36.33;26.23;;;;;;;29.73;80.79;99252.80;4337857;81;28467;-82
2021/06/23 17:44:12;;;;;;;35.25;28.00;;;;;;;29.53;82.09;99260.75;4336215;80;28492;-85
2021/06/23 17:50:14;;;;;;;35.40;26.45;;;;;;;29.76;79.97;99260.95;4334195;80;28515;-84
2021/06/23 17:56:15;;;;;;;35.70;26.73;;;;;;;29.74;81.56;99273.79;4331015;80;28508;-84
2021/06/23 18:02:16;;;;;;;38.63;27.00;;;;;;;29.09;89.43;99276.10;4336497;80;28508;-87
2021/06/23 18:08:20;;;;;;;37.30;27.15;;;;;;;28.59;95.76;99280.34;4318983;80;28493;-84
2021/06/23 18:14:21;;;;;;;40.88;28.00;;;;;;;28.72;95.45;99275.58;4338394;80;28468;-86
2021/06/23 18:20:23;;;;;;;35.90;28.10;;;;;;;28.67;95.75;99268.92;4336983;80;28528;-86
2021/06/23 18:26:24;;;;;;;38.90;28.52;;;;;;;28.71;97.18;99269.82;4330313;80;28502;-88
2021/06/23 18:32:26;;;;;;;39.10;28.32;;;;;;;28.65;96.18;99278.14;4339048;80;28533;-86
2021/06/23 18:38:27;;;;;;;39.30;27.80;;;;;;;28.89;93.83;99277.30;4327066;80;28579;-85
2021/06/23 18:44:29;;;;;;;38.95;28.15;;;;;;;28.81;96.60;99274.88;4365032;80;28467;-86
2021/06/23 18:50:33;;;;;;;35.30;25.92;;;;;;;28.73;100.00;99282.72;4332719;80;28510;-85
2021/06/23 18:56:35;;;;;;;43.98;30.55;;;;;;;28.83;100.00;99289.78;4344129;80;28540;-86
2021/06/23 19:02:36;;;;;;;44.23;31.27;;;;;;;28.05;100.00;99309.75;4398064;78;28412;-83
2021/06/23 19:08:38;;;;;;;38.92;28.47;;;;;;;28.37;100.00;99307.28;4415524;78;28548;-86
2021/06/23 19:14:41;;;;;;;38.92;27.67;;;;;;;28.57;100.00;99305.34;4398720;78;28515;-81
2021/06/23 19:20:43;;;;;;;46.98;32.65;;;;;;;28.53;100.00;99306.61;4415183;78;28519;-80
2021/06/23 19:26:45;;;;;;;43.78;29.25;;;;;;;28.34;100.00;99309.95;4366449;80;28473;-80
2021/06/23 19:32:49;;;;;;;49.50;32.10;;;;;;;28.51;100.00;99317.22;4367322;80;28550;-80
2021/06/23 19:38:52;;;;;;;43.28;28.02;;;;;;;28.24;100.00;99325.84;4345030;80;28550;-79
2021/06/23 19:44:56;;;;;;;47.17;31.68;;;;;;;28.61;100.00;99328.38;4289257;80;28546;-81
2021/06/23 19:50:58;;;;;;;45.58;30.15;;;;;;;27.90;100.00;99329.17;4375492;79;28511;-78
2021/06/23 19:56:59;;;;;;;46.92;32.23;;;;;;;27.73;100.00;99330.75;4378045;79;28546;-78
2021/06/23 20:03:01;;;;;;;42.55;29.18;;;;;;;27.69;100.00;99326.47;4371098;80;28507;-77
2021/06/23 20:09:04;;;;;;;42.05;27.70;;;;;;;27.77;100.00;99326.97;4340861;79;28557;-79
2021/06/23 20:15:08;;;;;;;43.28;28.30;;;;;;;27.62;100.00;99332.55;4434795;78;28488;-82
2021/06/23 20:21:10;;;;;;;36.10;23.92;;;;;;;27.35;100.00;99325.62;4307261;80;28466;-80
2021/06/23 20:27:12;;;;;;;34.80;23.70;;;;;;;27.38;100.00;99321.58;4356285;80;28443;-82
2021/06/23 20:33:13;;;;;;;30.62;21.00;;;;;;;27.41;100.00;99320.11;4375652;78;28524;-79
2021/06/23 20:39:15;;;;;;;29.48;20.92;;;;;;;27.38;100.00;99323.55;4376321;78;28454;-78
2021/06/23 20:45:19;;;;;;;29.30;19.87;;;;;;;27.44;100.00;99318.07;4368196;78;28524;-80
2021/06/23 20:51:24;;;;;;;32.15;21.33;;;;;;;27.41;100.00;99311.27;4374713;79;28506;-78
2021/06/23 20:57:26;;;;;;;29.75;20.80;;;;;;;27.54;100.00;99314.92;4327187;80;28479;-79
2021/06/23 21:03:28;;;;;;;26.15;18.85;;;;;;;27.46;100.00;99321.86;4318409;80;28510;-78
2021/06/23 21:09:35;;;;;;;25.72;19.20;;;;;;;27.51;100.00;99318.91;4353922;80;28854;-78
2021/06/23 21:15:43;;;;;;;30.27;19.92;;;;;;;27.71;100.00;99308.98;4335170;81;28526;-81
2021/06/23 21:21:47;;;;;;;28.65;18.80;;;;;;;27.19;100.00;99317.93;4317061;81;28519;-80
2021/06/23 21:27:48;;;;;;;30.32;19.65;;;;;;;26.99;100.00;99321.72;4287499;81;28487;-80
2021/06/23 21:33:53;;;;;;;30.77;19.42;;;;;;;27.03;100.00;99318.31;4290307;82;28459;-80
2021/06/23 21:40:20;;;;;;;26.77;19.37;;;;;;;26.36;100.00;99312.71;4356584;80;28468;-79
2021/06/23 21:46:31;;;;;;;27.00;18.97;;;;;;;26.59;100.00;99314.64;4304097;82;28560;-80
2021/06/23 21:52:33;;;;;;;25.92;17.60;;;;;;;26.81;100.00;99326.52;4367874;80;28444;-81
2021/06/23 21:58:35;;;;;;;26.33;17.30;;;;;;;26.88;100.00;99321.88;4343352;80;28479;-79
2021/06/23 22:04:44;;;;;;;22.32;16.52;;;;;;;26.65;100.00;99328.22;4362871;79;28444;-80
2021/06/23 22:10:45;;;;;;;23.20;16.67;;;;;;;26.53;100.00;99330.33;4321657;80;28531;-79
2021/06/23 22:16:46;;;;;;;27.35;18.40;;;;;;;26.49;100.00;99323.84;4351572;80;28491;-79
2021/06/23 22:22:54;;;;;;;28.95;18.17;;;;;;;26.53;100.00;99310.44;4339338;80;28510;-79
2021/06/23 22:28:58;;;;;;;26.40;17.27;;;;;;;26.52;100.00;99294.25;4410781;78;28607;-79
2021/06/23 22:35:01;;;;;;;26.65;16.48;;;;;;;26.43;100.00;99288.77;4345613;78;28534;-79
2021/06/23 22:41:56;;;;;;;27.95;16.05;;;;;;;26.31;100.00;99290.86;4460625;78;28459;-79
2021/06/23 22:47:17;;;;;;;23.20;16.55;;;;;;;26.45;100.00;99299.70;4421348;79;28465;-78
2021/06/23 22:53:17;;;;;;;23.47;16.77;;;;;;;26.37;100.00;99289.52;4448906;79;28485;-78
2021/06/23 22:59:23;;;;;;;25.75;16.48;;;;;;;26.19;100.00;99281.91;4448790;79;28521;-78
2021/06/23 23:05:22;;;;;;;24.40;16.77;;;;;;;25.99;100.00;99282.84;4448006;79;28454;-79
2021/06/23 23:11:24;;;;;;;25.52;17.95;;;;;;;25.99;100.00;99273.78;4454044;78;28449;-80
2021/06/23 23:17:28;;;;;;;27.30;17.27;;;;;;;25.88;100.00;99276.06;4391475;78;28490;-78
2021/06/23 23:23:29;;;;;;;23.20;16.60;;;;;;;26.08;100.00;99275.12;4447054;78;28500;-80
2021/06/23 23:29:30;;;;;;;28.23;17.40;;;;;;;25.88;100.00;99268.63;4443091;78;28485;-79
2021/06/23 23:35:32;;;;;;;29.02;19.12;;;;;;;26.00;100.00;99262.41;4430639;78;28507;-80
2021/06/23 23:41:33;;;;;;;26.65;18.05;;;;;;;25.95;100.00;99257.09;4445174;78;28476;-80
2021/06/23 23:47:34;;;;;;;28.25;18.40;;;;;;;26.13;100.00;99259.77;4420643;79;28451;-79
2021/06/23 23:53:36;;;;;;;28.42;17.65;;;;;;;25.95;100.00;99265.92;4330094;80;28460;-78
2021/06/23 23:59:37;;;;;;;27.20;17.45;;;;;;;25.98;100.00;99266.63;4313445;80;28450;-80
